Time;durP1;ratioP1;P1;durP2;ratioP2;P2;SDS_P1;SDS_P2;PMS_P1;PMS_P2;Temp;Humidity;BMP_temperature;BMP_pressure;BME280_temperature;BME280_humidity;BME280_pressure;Samples;Min_cycle;Max_cycle;Signal;HPM_P1;HPM_P2
2021/03/23 00:00:37;;;;;;;;;;;;;;;4.18;65.82;101267.59;5005674;28;20069;-77
2021/03/23 00:03:08;;;;;;;12.57;5.78;;;;;;;4.24;65.74;101266.91;5003762;28;19967;-77
2021/03/23 00:05:34;;;;;;;12.60;5.38;;;;;;;4.26;65.75;101263.50;5001396;28;20042;-77
2021/03/23 00:07:59;;;;;;;14.15;6.03;;;;;;;4.28;65.83;101267.06;5002558;28;20045;-77
2021/03/23 00:10:27;;;;;;;14.13;4.78;;;;;;;4.33;66.27;101272.44;5004948;28;20048;-77
2021/03/23 00:12:53;;;;;;;11.45;5.45;;;;;;;4.26;66.21;101266.13;5004894;28;20464;-77
2021/03/23 00:15:20;;;;;;;14.02;5.57;;;;;;;4.28;66.42;101276.63;5001508;28;20389;-77
2021/03/23 00:17:46;;;;;;;11.88;5.35;;;;;;;4.28;66.20;101274.91;5001480;28;20034;-77
2021/03/23 00:20:16;;;;;;;11.77;5.13;;;;;;;4.33;66.72;101275.94;5004042;28;20031;-77
2021/03/23 00:22:42;;;;;;;16.05;6.65;;;;;;;4.34;66.25;101269.84;5004973;28;20038;-77
2021/03/23 00:25:09;;;;;;;15.88;5.72;;;;;;;4.34;66.41;101275.09;5002368;28;20034;-77
2021/03/23 00:27:36;;;;;;;9.93;4.80;;;;;;;4.40;66.87;101271.75;5001172;28;20489;-77
2021/03/23 00:30:04;;;;;;;12.35;5.53;;;;;;;4.47;66.43;101278.06;5002478;28;20117;-77
2021/03/23 00:32:29;;;;;;;15.35;5.55;;;;;;;4.35;67.37;101279.50;5004661;28;20068;-77
2021/03/23 00:34:54;;;;;;;12.90;5.45;;;;;;;4.39;67.10;101278.72;5004069;28;20038;-77
2021/03/23 00:37:20;;;;;;;14.38;6.93;;;;;;;4.45;66.74;101270.19;5000954;28;20409;-78
2021/03/23 00:39:46;;;;;;;16.23;6.60;;;;;;;4.50;66.81;101275.56;5001130;28;20413;-77
2021/03/23 00:42:11;;;;;;;14.52;5.82;;;;;;;4.55;66.79;101273.97;5009875;28;20033;-77
2021/03/23 00:44:37;;;;;;;18.30;7.25;;;;;;;4.53;67.07;101275.63;5011093;28;20041;-76
2021/03/23 00:47:03;;;;;;;13.23;6.75;;;;;;;4.55;67.00;101276.59;5004039;28;20030;-77
2021/03/23 00:49:28;;;;;;;12.32;6.57;;;;;;;4.59;67.03;101274.13;5004178;28;20087;-77
2021/03/23 00:51:57;;;;;;;12.07;5.28;;;;;;;4.67;66.90;101274.34;5019136;28;20083;-77
2021/03/23 00:54:22;;;;;;;15.85;6.88;;;;;;;4.70;66.86;101274.44;5000988;28;20038;-77
2021/03/23 00:56:48;;;;;;;13.80;5.90;;;;;;;4.74;66.63;101275.41;5000585;28;20083;-77
2021/03/23 00:59:13;;;;;;;15.73;5.90;;;;;;;4.77;66.72;101272.91;5003586;28;20037;-77
2021/03/23 01:01:39;;;;;;;13.88;6.53;;;;;;;4.82;66.63;101276.50;5010656;28;20030;-76
2021/03/23 01:04:05;;;;;;;11.48;5.18;;;;;;;4.79;66.72;101272.09;5002279;28;20041;-77
2021/03/23 01:06:31;;;;;;;14.85;6.15;;;;;;;4.76;67.15;101274.59;5000424;28;20038;-77
2021/03/23 01:08:56;;;;;;;12.77;5.47;;;;;;;4.81;67.13;101270.38;5001111;28;20129;-77
2021/03/23 01:11:21;;;;;;;10.57;5.03;;;;;;;4.81;67.22;101272.13;5010812;28;20186;-77
2021/03/23 01:13:47;;;;;;;11.73;5.55;;;;;;;4.79;67.40;101272.09;5003850;28;20407;-76
2021/03/23 01:16:12;;;;;;;13.82;5.57;;;;;;;4.77;67.17;101260.69;5007710;28;20077;-77
2021/03/23 01:18:37;;;;;;;9.55;5.07;;;;;;;4.81;67.52;101265.16;5018347;28;20026;-77
2021/03/23 01:21:04;;;;;;;15.90;5.15;;;;;;;4.80;67.86;101266.03;5008380;28;20540;-77
2021/03/23 01:23:30;;;;;;;14.38;5.95;;;;;;;4.81;67.60;101262.53;5000311;28;20061;-77
2021/03/23 01:25:55;;;;;;;16.40;6.57;;;;;;;4.81;67.86;101267.78;5000556;28;20073;-76
2021/03/23 01:28:20;;;;;;;13.80;6.07;;;;;;;4.81;67.87;101265.16;5003962;28;20469;-77
2021/03/23 01:30:46;;;;;;;12.13;5.30;;;;;;;4.78;68.30;101262.47;5003617;28;20526;-77
2021/03/23 01:33:11;;;;;;;13.65;5.50;;;;;;;4.79;68.37;101269.50;5000964;28;20471;-76
2021/03/23 01:35:37;;;;;;;13.23;5.15;;;;;;;4.77;68.76;101265.94;5000039;28;20041;-77
2021/03/23 01:38:03;;;;;;;14.63;5.72;;;;;;;4.73;68.62;101269.28;5001508;28;20507;-77
2021/03/23 01:40:29;;;;;;;12.32;4.95;;;;;;;4.74;68.98;101268.47;5003478;28;20033;-77
2021/03/23 01:42:58;;;;;;;10.43;4.18;;;;;;;4.75;68.88;101275.47;5002970;28;20500;-77
2021/03/23 01:45:36;;;;;;;14.40;4.63;;;;;;;4.77;68.88;101265.06;5015998;28;20027;-76
2021/03/23 01:48:06;;;;;;;12.27;4.93;;;;;;;4.80;68.76;101265.13;5008130;28;20064;-77
2021/03/23 01:50:33;;;;;;;13.13;4.80;;;;;;;4.79;68.92;101272.09;5000101;28;20090;-77
2021/03/23 01:53:08;;;;;;;10.77;4.90;;;;;;;4.84;68.72;101272.22;5000742;28;20034;-77
2021/03/23 01:55:35;;;;;;;13.80;4.90;;;;;;;4.86;69.04;101267.91;5005670;28;20053;-76
2021/03/23 01:58:01;;;;;;;10.57;4.97;;;;;;;4.89;69.33;101267.13;5002058;28;20037;-77
2021/03/23 02:00:26;;;;;;;11.25;4.13;;;;;;;4.84;69.96;101264.38;4999889;28;20145;-77
2021/03/23 02:02:52;;;;;;;12.13;4.65;;;;;;;4.82;69.59;101259.09;5000007;28;20054;-77
2021/03/23 02:05:22;;;;;;;11.77;4.00;;;;;;;4.81;70.13;101262.53;5002974;28;20108;-77
2021/03/23 02:07:47;;;;;;;10.45;3.45;;;;;;;4.80;69.53;101259.91;5003228;28;20042;-77
2021/03/23 02:10:14;;;;;;;8.70;3.17;;;;;;;4.81;69.81;101262.53;5007353;28;20048;-77
2021/03/23 02:12:40;;;;;;;10.20;3.70;;;;;;;4.79;70.17;101253.78;5000610;28;20038;-77
2021/03/23 02:15:06;;;;;;;11.15;3.05;;;;;;;4.73;70.84;101258.81;5005375;28;20034;-77
2021/03/23 02:17:37;;;;;;;6.90;3.00;;;;;;;4.82;70.48;101264.34;5007087;28;20036;-77
2021/03/23 02:20:16;;;;;;;7.70;3.03;;;;;;;4.81;70.42;101265.16;5005630;28;20120;-77
2021/03/23 02:22:46;;;;;;;10.07;3.28;;;;;;;4.89;70.54;101264.50;5022406;28;20116;-77
2021/03/23 02:25:24;;;;;;;9.95;3.15;;;;;;;4.89;70.68;101259.28;5011574;28;20400;-77
2021/03/23 02:27:50;;;;;;;9.85;3.35;;;;;;;4.95;70.35;101267.28;5023113;28;20041;-77
2021/03/23 02:30:32;;;;;;;8.05;3.10;;;;;;;4.96;70.30;101272.56;5011721;28;20045;-77
2021/03/23 02:32:58;;;;;;;6.07;3.10;;;;;;;5.03;70.43;101269.28;5004336;28;20493;-77
2021/03/23 02:35:23;;;;;;;7.30;2.60;;;;;;;5.04;70.77;101270.19;5006498;28;20037;-76
2021/03/23 02:37:48;;;;;;;5.88;2.13;;;;;;;5.06;70.74;101268.50;5006650;28;20038;-77
2021/03/23 02:40:14;;;;;;;8.35;2.70;;;;;;;5.11;70.54;101276.44;5053659;23;20132;-73
2021/03/23 02:42:40;;;;;;;8.90;2.38;;;;;;;5.13;70.74;101282.63;5046155;28;20029;-73
2021/03/23 02:45:06;;;;;;;7.53;2.50;;;;;;;5.17;70.60;101277.53;5044338;28;20088;-73
2021/03/23 02:47:31;;;;;;;7.88;2.45;;;;;;;5.26;70.38;101277.75;5042919;28;20078;-73
2021/03/23 02:49:57;;;;;;;5.43;2.00;;;;;;;5.25;70.10;101278.63;5043315;28;20026;-73
2021/03/23 02:52:22;;;;;;;6.45;2.33;;;;;;;5.28;69.98;101276.06;5046205;28;20174;-73
2021/03/23 02:54:48;;;;;;;6.10;2.47;;;;;;;5.33;70.01;101283.19;5043997;28;20033;-73
2021/03/23 02:57:13;;;;;;;6.18;2.40;;;;;;;5.31;70.02;101290.09;5042939;28;20033;-73
2021/03/23 02:59:38;;;;;;;6.43;2.38;;;;;;;5.24;69.75;101283.81;5042538;28;20036;-73
2021/03/23 03:02:05;;;;;;;6.70;2.60;;;;;;;5.24;70.01;101284.72;5044190;28;20033;-73
2021/03/23 03:04:32;;;;;;;7.75;2.67;;;;;;;5.23;70.04;101289.88;5045896;28;20037;-73
2021/03/23 03:06:58;;;;;;;7.82;2.00;;;;;;;5.29;69.83;101290.03;5044896;28;20079;-73
2021/03/23 03:09:24;;;;;;;12.60;2.47;;;;;;;5.25;69.82;101291.69;5042334;28;20611;-72
2021/03/23 03:11:50;;;;;;;7.30;2.33;;;;;;;5.20;70.07;101287.19;5042337;28;20033;-73
2021/03/23 03:14:17;;;;;;;8.40;2.97;;;;;;;5.21;70.28;101292.47;5045525;28;20055;-72
2021/03/23 03:16:42;;;;;;;6.88;2.65;;;;;;;5.20;70.08;101293.31;5045393;28;20040;-73
2021/03/23 03:19:07;;;;;;;6.80;2.15;;;;;;;5.22;70.53;101286.38;5043562;28;20028;-73
2021/03/23 03:21:33;;;;;;;7.28;2.40;;;;;;;5.14;70.93;101301.00;5042362;28;20112;-74
2021/03/23 03:23:58;;;;;;;6.90;2.67;;;;;;;5.18;70.48;101294.97;5042599;28;20120;-74
2021/03/23 03:26:23;;;;;;;8.25;3.05;;;;;;;5.18;70.95;101294.09;5045051;28;20492;-73
2021/03/23 03:28:52;;;;;;;10.48;2.65;;;;;;;5.22;70.76;101302.09;5045202;28;20098;-74
2021/03/23 03:31:24;;;;;;;8.10;2.75;;;;;;;5.23;71.01;101301.22;5040728;28;20045;-73
2021/03/23 03:33:51;;;;;;;5.88;2.10;;;;;;;5.22;70.96;101299.47;5041942;28;20029;-73
2021/03/23 03:36:18;;;;;;;8.90;3.03;;;;;;;5.21;71.38;101305.56;5043875;28;20110;-72
2021/03/23 03:38:43;;;;;;;5.20;2.30;;;;;;;5.20;71.16;101301.16;5044725;28;20048;-73
2021/03/23 03:41:09;;;;;;;7.65;2.80;;;;;;;5.22;71.43;101307.31;5053742;28;20029;-73
2021/03/23 03:43:34;;;;;;;6.47;2.67;;;;;;;5.17;72.08;101314.16;5041773;28;20531;-73
2021/03/23 03:46:01;;;;;;;7.63;2.90;;;;;;;5.12;72.53;101318.38;5042311;28;20037;-73
2021/03/23 03:48:26;;;;;;;11.40;3.35;;;;;;;5.10;72.74;101312.19;5045044;28;20403;-73
2021/03/23 03:50:52;;;;;;;7.35;2.50;;;;;;;5.08;73.48;101321.72;5043569;28;20029;-73
2021/03/23 03:53:18;;;;;;;7.63;2.45;;;;;;;4.98;73.82;101315.38;5050002;28;20513;-73
2021/03/23 03:55:45;;;;;;;4.68;2.08;;;;;;;4.90;74.31;101329.03;5044661;28;20029;-74
2021/03/23 03:58:11;;;;;;;8.77;2.33;;;;;;;4.93;74.64;101321.31;5042936;28;20086;-73
2021/03/23 04:00:37;;;;;;;4.57;1.80;;;;;;;4.84;76.12;101333.25;5046916;28;20033;-72
2021/03/23 04:03:05;;;;;;;7.50;2.95;;;;;;;4.54;78.58;101334.94;5042620;28;20447;-72
2021/03/23 04:05:32;;;;;;;8.38;2.45;;;;;;;4.37;80.56;101330.06;5044289;28;20492;-71
2021/03/23 04:07:58;;;;;;;6.38;2.63;;;;;;;4.26;80.73;101339.28;5043896;28;20032;-72
2021/03/23 04:10:24;;;;;;;9.38;2.53;;;;;;;4.24;81.20;101340.06;5041049;28;20040;-72
2021/03/23 04:12:51;;;;;;;10.35;3.03;;;;;;;4.16;81.74;101337.22;5041048;28;20048;-72
2021/03/23 04:15:26;;;;;;;7.45;3.13;;;;;;;4.20;81.56;101343.44;5044175;28;20067;-72
2021/03/23 04:17:52;;;;;;;5.28;2.10;;;;;;;4.22;81.62;101340.03;5044609;28;20039;-72
2021/03/23 04:20:18;;;;;;;8.23;3.25;;;;;;;4.17;82.16;101336.38;5040887;28;20470;-72
2021/03/23 04:22:45;;;;;;;10.15;2.92;;;;;;;4.13;82.42;101347.56;5040940;28;20048;-72
2021/03/23 04:25:12;;;;;;;8.20;2.95;;;;;;;4.16;82.46;101329.38;5042939;28;20438;-72
2021/03/23 04:27:37;;;;;;;7.38;3.35;;;;;;;4.17;82.43;101339.00;5044282;28;20562;-72
2021/03/23 04:30:05;;;;;;;9.20;3.00;;;;;;;4.25;82.20;101336.63;5042713;28;20112;-72
2021/03/23 04:32:30;;;;;;;13.23;3.80;;;;;;;4.22;82.37;101332.19;5040797;28;20048;-71
2021/03/23 04:34:56;;;;;;;10.50;3.42;;;;;;;4.24;82.30;101327.00;5040684;28;20035;-72
2021/03/23 04:37:21;;;;;;;9.02;3.58;;;;;;;4.25;82.61;101328.81;5045409;28;20102;-72
2021/03/23 04:39:46;;;;;;;7.90;2.78;;;;;;;4.29;82.72;101334.16;5050475;28;20033;-72
2021/03/23 04:42:12;;;;;;;8.50;2.70;;;;;;;4.30;83.06;101332.44;5041266;28;20060;-71
2021/03/23 04:44:38;;;;;;;6.35;2.78;;;;;;;4.31;82.88;101342.94;5040497;28;20116;-72
2021/03/23 04:47:03;;;;;;;9.82;3.53;;;;;;;4.33;82.73;101340.38;5040194;28;20038;-72
2021/03/23 04:49:28;;;;;;;8.70;3.05;;;;;;;4.31;82.74;101340.31;5043763;28;20055;-72
2021/03/23 04:51:54;;;;;;;8.50;3.10;;;;;;;4.29;82.90;101342.00;5043650;28;20610;-71
2021/03/23 04:54:19;;;;;;;8.45;3.28;;;;;;;4.20;83.62;101346.94;5040308;28;20535;-72
2021/03/23 04:56:45;;;;;;;9.93;3.30;;;;;;;4.19;83.52;101345.13;5034299;28;20076;-71
2021/03/23 04:59:10;;;;;;;6.25;2.92;;;;;;;4.16;83.26;101345.03;5040117;28;20032;-71
2021/03/23 05:01:38;;;;;;;8.73;3.65;;;;;;;4.15;83.59;101343.28;5040188;28;20124;-72
2021/03/23 05:04:06;;;;;;;7.03;3.03;;;;;;;4.14;83.57;101345.00;5041922;28;20042;-72
2021/03/23 05:06:32;;;;;;;7.35;2.95;;;;;;;4.15;84.08;101346.78;5043215;28;20029;-72
2021/03/23 05:08:58;;;;;;;13.50;3.80;;;;;;;4.23;83.53;101343.53;5042807;28;20101;-72
2021/03/23 05:11:26;;;;;;;9.30;3.30;;;;;;;4.24;83.54;101347.91;5040059;28;20033;-71
2021/03/23 05:13:52;;;;;;;8.18;3.75;;;;;;;4.23;83.63;101341.81;5039942;28;20130;-71
2021/03/23 05:16:18;;;;;;;7.90;3.08;;;;;;;4.23;83.48;101349.66;5042863;28;20063;-71
2021/03/23 05:18:43;;;;;;;7.30;3.30;;;;;;;4.22;83.38;101355.72;5043240;28;20129;-72
2021/03/23 05:21:09;;;;;;;7.40;3.25;;;;;;;4.34;83.06;101358.72;5040919;28;20152;-73
2021/03/23 05:23:36;;;;;;;8.80;2.88;;;;;;;4.31;83.26;101358.63;5039664;28;20037;-72
2021/03/23 05:26:03;;;;;;;9.05;3.50;;;;;;;4.33;83.12;101351.72;5040739;28;20041;-72
2021/03/23 05:28:28;;;;;;;7.95;3.63;;;;;;;4.35;83.03;101352.66;5043004;28;20037;-72
2021/03/23 05:30:54;;;;;;;8.18;3.35;;;;;;;4.39;82.59;101357.13;5042789;28;20036;-72
2021/03/23 05:33:20;;;;;;;8.52;3.47;;;;;;;4.36;82.74;101354.44;5039738;28;20072;-72
2021/03/23 05:35:49;;;;;;;9.40;3.92;;;;;;;4.36;82.43;101369.22;5039501;28;20111;-73
2021/03/23 05:38:14;;;;;;;11.35;4.10;;;;;;;4.40;82.16;101363.25;5042340;28;20388;-73
2021/03/23 05:40:43;;;;;;;10.70;3.67;;;;;;;4.38;82.62;101368.44;5042677;28;20040;-72
2021/03/23 05:43:37;;;;;;;8.20;3.28;;;;;;;4.41;82.78;101372.00;5040675;28;20039;-73
2021/03/23 05:46:27;;;;;;;9.85;3.80;;;;;;;4.44;82.84;101366.88;5040503;28;20044;-72
2021/03/23 05:49:10;;;;;;;9.68;3.67;;;;;;;4.50;82.24;101365.31;5042997;28;20041;-72
2021/03/23 05:52:15;;;;;;;6.43;3.40;;;;;;;4.47;82.45;101369.56;5039329;28;20045;-72
2021/03/23 05:54:56;;;;;;;7.20;3.13;;;;;;;4.49;82.37;101367.91;5039513;28;20467;-73
2021/03/23 05:57:43;;;;;;;5.10;3.30;;;;;;;4.48;81.99;101371.31;5039271;28;20061;-72
2021/03/23 06:00:29;;;;;;;9.48;3.70;;;;;;;4.48;82.36;101371.31;5044652;28;20115;-72
2021/03/23 06:03:09;;;;;;;8.00;3.42;;;;;;;4.52;81.87;101375.84;5052703;28;20044;-72
2021/03/23 06:05:44;;;;;;;8.60;3.75;;;;;;;4.56;81.80;101383.84;5039064;28;20038;-72
2021/03/23 06:08:17;;;;;;;10.38;3.90;;;;;;;4.60;81.36;101374.34;5041569;28;20179;-72
2021/03/23 06:10:43;;;;;;;9.05;3.20;;;;;;;4.66;81.05;101384.09;5042609;28;20040;-72
2021/03/23 06:13:31;;;;;;;7.80;3.67;;;;;;;4.70;81.65;101383.38;5040560;28;20506;-72
2021/03/23 06:16:43;;;;;;;8.77;3.72;;;;;;;4.71;80.58;101386.03;5039628;28;20384;-73
2021/03/23 06:19:23;;;;;;;8.75;3.28;;;;;;;4.83;80.54;101382.91;5040556;28;20029;-72
2021/03/23 06:22:24;;;;;;;7.28;3.53;;;;;;;4.87;80.10;101381.25;5039123;28;20056;-72
2021/03/23 06:25:03;;;;;;;8.25;3.72;;;;;;;5.00;79.27;101378.19;5038977;28;20456;-71
2021/03/23 06:27:40;;;;;;;8.10;3.55;;;;;;;4.97;79.41;101378.09;5049756;28;20025;-71
2021/03/23 06:30:27;;;;;;;7.25;3.25;;;;;;;4.97;79.50;101394.66;5052253;28;20032;-72
2021/03/23 06:32:54;;;;;;;6.53;3.63;;;;;;;4.97;79.29;101385.94;5055772;28;20037;-72
2021/03/23 06:35:31;;;;;;;7.55;2.92;;;;;;;4.96;79.08;101398.13;5038606;28;20120;-72
2021/03/23 06:37:57;;;;;;;7.03;3.13;;;;;;;5.00;79.18;101394.78;5039401;28;20044;-72
2021/03/23 06:40:33;;;;;;;8.43;3.08;;;;;;;5.04;78.44;101393.16;5042232;28;20033;-71
2021/03/23 06:43:34;;;;;;;7.68;4.07;;;;;;;5.03;78.27;101396.59;5044092;28;20037;-71
2021/03/23 06:46:05;;;;;;;9.15;3.78;;;;;;;5.09;78.22;101394.16;5008017;28;20038;-72
2021/03/23 06:48:33;;;;;;;5.90;3.17;;;;;;;5.09;78.00;101399.41;5035310;28;20041;-72
2021/03/23 06:51:12;;;;;;;8.32;3.30;;;;;;;5.09;78.64;101388.94;5041561;28;20502;-72
2021/03/23 06:53:38;;;;;;;6.60;3.20;;;;;;;5.19;78.15;101396.22;5038775;28;20446;-72
2021/03/23 06:56:20;;;;;;;8.15;3.80;;;;;;;5.23;77.55;101398.06;5040018;28;20399;-72
2021/03/23 06:58:46;;;;;;;8.70;3.60;;;;;;;5.28;77.58;101391.25;5043007;28;20045;-72
2021/03/23 07:01:24;;;;;;;4.65;2.78;;;;;;;5.37;77.20;101395.88;5042197;28;20072;-72
2021/03/23 07:03:52;;;;;;;4.60;2.72;;;;;;;5.38;77.33;101397.63;5042497;28;20033;-72
2021/03/23 07:06:27;;;;;;;5.60;3.10;;;;;;;5.23;77.40;101395.44;5045283;28;20029;-72
2021/03/23 07:09:21;;;;;;;8.07;2.67;;;;;;;5.22;77.84;101398.94;5027951;28;20056;-72
2021/03/23 07:12:03;;;;;;;7.10;2.53;;;;;;;5.21;78.08;101407.63;5042273;28;20045;-72
2021/03/23 07:14:48;;;;;;;8.02;2.97;;;;;;;5.20;78.10;101403.22;5042315;28;20396;-72
2021/03/23 07:17:26;;;;;;;7.43;2.95;;;;;;;5.25;77.85;101417.31;5044771;28;20043;-71
2021/03/23 07:19:53;;;;;;;8.43;2.78;;;;;;;5.25;77.53;101406.84;5045568;28;20115;-71
2021/03/23 07:22:27;;;;;;;5.18;2.60;;;;;;;5.26;77.40;101421.72;5042128;28;20095;-72
2021/03/23 07:24:58;;;;;;;6.85;3.20;;;;;;;5.40;77.00;101416.91;5042037;28;20029;-72
2021/03/23 07:27:27;;;;;;;5.70;2.60;;;;;;;5.41;76.50;101412.53;5041871;28;20072;-72
2021/03/23 07:30:26;;;;;;;8.20;2.80;;;;;;;5.41;77.49;101412.53;5041956;28;20103;-72
2021/03/23 07:32:58;;;;;;;7.57;2.42;;;;;;;5.57;76.44;101406.91;5041955;28;20443;-72
2021/03/23 07:35:37;;;;;;;5.37;2.67;;;;;;;5.69;75.64;101427.31;5041671;28;20088;-72
2021/03/23 07:38:14;;;;;;;7.13;2.90;;;;;;;5.67;75.17;101414.16;5043081;28;20047;-72
2021/03/23 07:40:44;;;;;;;6.25;2.85;;;;;;;5.69;75.48;101415.09;5045057;28;20040;-72
2021/03/23 07:43:31;;;;;;;5.07;2.78;;;;;;;5.76;75.02;101423.13;5042946;28;20071;-72
2021/03/23 07:46:04;;;;;;;5.68;2.58;;;;;;;5.74;75.10;101419.56;5040390;28;20037;-72
2021/03/23 07:48:56;;;;;;;4.55;2.80;;;;;;;5.74;75.70;101420.47;5044772;28;20040;-72
2021/03/23 07:51:35;;;;;;;6.32;3.17;;;;;;;5.78;75.24;101424.06;5041416;28;20032;-72
2021/03/23 07:54:38;;;;;;;5.55;3.10;;;;;;;5.72;74.74;101424.78;5044036;28;20484;-72
2021/03/23 07:57:18;;;;;;;4.70;2.65;;;;;;;5.70;75.40;101443.06;5035502;28;20102;-72
2021/03/23 08:00:21;;;;;;;5.55;2.53;;;;;;;5.57;75.85;101433.09;5041281;28;20389;-72
2021/03/23 08:02:55;;;;;;;3.92;2.22;;;;;;;5.48;75.65;101436.34;5026512;28;20050;-72
2021/03/23 08:05:38;;;;;;;6.47;2.80;;;;;;;5.39;76.79;101446.53;5040988;28;20060;-72
2021/03/23 08:08:28;;;;;;;6.93;3.08;;;;;;;5.28;76.95;101446.22;5037386;28;20508;-72
2021/03/23 08:11:33;;;;;;;6.68;3.65;;;;;;;5.25;77.55;101459.22;5040042;28;20116;-72
2021/03/23 08:14:23;;;;;;;6.13;2.80;;;;;;;5.30;77.94;101455.84;5043864;28;20033;-72
2021/03/23 08:16:59;;;;;;;4.30;2.60;;;;;;;5.40;77.11;101455.28;5040924;28;20033;-72
2021/03/23 08:19:52;;;;;;;4.72;2.20;;;;;;;5.41;77.03;101449.19;5040929;28;20048;-72
2021/03/23 08:22:45;;;;;;;4.97;2.40;;;;;;;5.42;76.05;101461.44;5044408;28;20112;-72
2021/03/23 08:25:44;;;;;;;5.18;2.65;;;;;;;5.53;76.36;101459.13;5041791;28;20445;-72
2021/03/23 08:28:31;;;;;;;6.95;2.20;;;;;;;5.68;74.92;101447.34;5043169;28;20044;-71
2021/03/23 08:31:26;;;;;;;4.68;2.10;;;;;;;5.82;74.31;101462.59;5043860;28;20044;-72
2021/03/23 08:34:28;;;;;;;6.10;2.20;;;;;;;5.86;73.53;101461.84;5006168;28;20049;-72
2021/03/23 08:37:24;;;;;;;3.87;2.17;;;;;;;5.87;73.61;101455.78;5040518;28;20041;-71
2021/03/23 08:39:58;;;;;;;6.20;2.17;;;;;;;6.00;73.99;101455.28;5097916;22;20083;-72
2021/03/23 08:42:26;;;;;;;4.97;2.30;;;;;;;6.01;73.93;101464.03;5049745;28;20035;-72
2021/03/23 08:44:53;;;;;;;4.55;2.30;;;;;;;6.04;72.33;101465.00;5041462;28;20098;-72
2021/03/23 08:47:28;;;;;;;4.35;2.50;;;;;;;6.10;73.52;101465.19;5049866;28;20422;-71
2021/03/23 08:49:55;;;;;;;5.50;2.00;;;;;;;6.34;72.63;101464.03;5045758;28;20044;-72
2021/03/23 08:52:39;;;;;;;4.47;2.53;;;;;;;6.43;72.01;101460.78;5040519;28;20124;-72
2021/03/23 08:55:27;;;;;;;4.10;2.10;;;;;;;6.45;71.07;101461.72;5040601;28;20025;-72
2021/03/23 08:58:00;;;;;;;5.10;3.05;;;;;;;6.56;70.52;101463.72;5038598;28;20037;-72
2021/03/23 09:00:34;;;;;;;4.72;2.22;;;;;;;6.67;69.40;101468.38;5048640;28;20032;-72
2021/03/23 09:03:01;;;;;;;3.75;2.20;;;;;;;6.77;69.48;101460.75;5045404;28;20041;-72
2021/03/23 09:05:44;;;;;;;4.38;2.30;;;;;;;6.89;67.61;101470.66;5043244;28;20037;-72
2021/03/23 09:08:17;;;;;;;6.20;2.55;;;;;;;6.83;69.02;101469.63;5041125;28;20044;-71
2021/03/23 09:10:55;;;;;;;4.13;2.10;;;;;;;6.85;68.05;101467.94;5033749;28;20071;-72
2021/03/23 09:13:44;;;;;;;5.40;2.25;;;;;;;6.85;68.04;101460.06;5040068;28;20045;-71
2021/03/23 09:16:12;;;;;;;4.97;2.00;;;;;;;6.96;67.93;101461.19;5041683;28;20044;-72
2021/03/23 09:19:02;;;;;;;3.75;2.17;;;;;;;6.95;67.96;101452.44;5043203;28;20086;-72
2021/03/23 09:21:56;;;;;;;4.10;2.17;;;;;;;7.21;66.69;101462.66;5039619;28;20038;-72
2021/03/23 09:24:36;;;;;;;3.67;2.40;;;;;;;7.30;65.95;101468.09;5042363;28;20060;-72
2021/03/23 09:27:09;;;;;;;4.28;2.40;;;;;;;7.29;66.00;101461.09;5041702;28;20455;-72
2021/03/23 09:29:42;;;;;;;;;;;;;;;7.45;65.59;101463.19;5040132;28;20129;-72
2021/03/23 09:32:19;;;;;;;4.25;2.40;;;;;;;7.43;65.48;101470.13;5041482;28;19913;-72
2021/03/23 09:35:11;;;;;;;5.57;2.40;;;;;;;7.32;65.85;101471.66;5043107;28;20112;-72
2021/03/23 09:38:32;;;;;;;3.63;2.15;;;;;;;7.35;65.84;101476.97;5039594;28;20041;-73
2021/03/23 09:41:04;;;;;;;4.85;2.63;;;;;;;7.44;66.93;101477.19;5013946;28;20060;-72
2021/03/23 09:43:38;;;;;;;5.22;2.53;;;;;;;7.49;65.98;101473.75;5043101;28;20041;-72
2021/03/23 09:46:14;;;;;;;6.20;2.70;;;;;;;7.45;65.14;101473.69;5041306;28;20120;-72
2021/03/23 09:49:19;;;;;;;4.53;2.53;;;;;;;7.54;65.21;101474.72;5048165;28;20502;-73
2021/03/23 09:52:11;;;;;;;4.10;2.08;;;;;;;7.59;65.26;101471.34;5036285;28;20056;-72
2021/03/23 09:54:49;;;;;;;;;;;;;;;7.65;64.61;101479.38;5039935;28;20033;-71
2021/03/23 09:57:18;;;;;;;4.50;2.45;;;;;;;7.70;62.90;101479.44;5042117;28;19939;-72
2021/03/23 09:59:46;;;;;;;5.38;1.98;;;;;;;7.71;62.51;101477.72;5042776;28;20072;-72
2021/03/23 10:02:17;;;;;;;4.05;2.20;;;;;;;7.74;63.08;101473.41;5040256;28;20033;-72
2021/03/23 10:04:44;;;;;;;4.65;2.47;;;;;;;7.84;62.40;101482.38;5039246;28;20531;-72
2021/03/23 10:07:24;;;;;;;3.10;1.40;;;;;;;7.93;59.84;101482.56;5041612;28;20452;-72
2021/03/23 10:09:50;;;;;;;2.63;1.30;;;;;;;8.12;57.96;101473.28;5042927;28;20041;-72
2021/03/23 10:12:28;;;;;;;3.67;1.65;;;;;;;8.10;59.05;101480.28;5040003;28;20103;-73
2021/03/23 10:14:53;;;;;;;3.45;1.80;;;;;;;7.98;58.43;101480.03;5039428;28;20057;-72
2021/03/23 10:17:25;;;;;;;4.60;1.95;;;;;;;7.72;59.95;101482.13;5039020;28;20077;-72
2021/03/23 10:19:59;;;;;;;3.60;1.50;;;;;;;7.60;60.90;101478.41;5050950;28;20052;-72
2021/03/23 10:22:30;;;;;;;3.25;1.50;;;;;;;7.67;60.65;101482.03;5039282;28;20503;-72
2021/03/23 10:24:58;;;;;;;3.50;1.80;;;;;;;7.61;61.12;101477.53;5039387;28;20043;-72
2021/03/23 10:27:33;;;;;;;3.10;1.70;;;;;;;7.57;61.75;101486.22;5042388;28;20439;-72
2021/03/23 10:29:58;;;;;;;2.97;1.52;;;;;;;7.52;62.30;101484.31;5041797;28;20060;-72
2021/03/23 10:32:43;;;;;;;3.10;1.88;;;;;;;7.41;62.06;101489.34;5039193;28;20038;-72
2021/03/23 10:35:14;;;;;;;3.17;1.40;;;;;;;7.39;62.99;101484.06;5044389;28;20415;-72
2021/03/23 10:37:39;;;;;;;5.32;1.67;;;;;;;7.39;62.25;101483.19;5045252;28;20051;-72
2021/03/23 10:40:27;;;;;;;3.13;1.58;;;;;;;7.38;63.09;101482.28;5044580;28;20037;-72
2021/03/23 10:42:54;;;;;;;4.05;1.88;;;;;;;7.49;62.54;101485.13;5042961;28;20029;-72
2021/03/23 10:45:38;;;;;;;4.28;2.08;;;;;;;7.58;62.82;101479.22;5042579;28;20035;-72
2021/03/23 10:48:26;;;;;;;3.28;1.67;;;;;;;7.63;62.18;101482.81;5044181;28;20091;-72
2021/03/23 10:51:27;;;;;;;3.25;1.95;;;;;;;7.79;62.57;101482.28;5046146;28;20048;-72
2021/03/23 10:54:17;;;;;;;5.32;1.70;;;;;;;8.08;61.20;101487.22;5008700;28;20103;-73
2021/03/23 10:56:45;;;;;;;2.90;1.58;;;;;;;8.20;59.20;101487.47;5042266;28;20084;-73
2021/03/23 10:59:13;;;;;;;3.47;1.30;;;;;;;8.09;59.19;101486.34;5044763;28;20447;-73
2021/03/23 11:02:12;;;;;;;3.80;1.77;;;;;;;8.08;59.96;101496.00;5045976;28;20377;-72
2021/03/23 11:04:55;;;;;;;3.47;1.30;;;;;;;8.23;58.95;101487.53;5042472;28;20030;-73
2021/03/23 11:07:24;;;;;;;2.55;1.40;;;;;;;8.24;57.76;101489.28;5042331;28;20068;-73
2021/03/23 11:09:55;;;;;;;3.85;1.40;;;;;;;8.21;58.44;101497.13;5042328;28;20036;-72
2021/03/23 11:12:20;;;;;;;2.90;1.50;;;;;;;8.34;59.57;101491.22;5042503;28;20132;-73
2021/03/23 11:14:46;;;;;;;2.28;1.38;;;;;;;8.46;59.71;101501.13;5042275;28;20069;-73
2021/03/23 11:17:13;;;;;;;4.32;1.70;;;;;;;8.40;59.08;101486.97;5044417;28;20037;-72
2021/03/23 11:19:43;;;;;;;2.80;1.40;;;;;;;8.30;58.73;101499.91;5049280;28;20108;-73
2021/03/23 11:22:12;;;;;;;2.65;1.33;;;;;;;8.32;58.23;101502.59;5053399;28;20506;-72
2021/03/23 11:24:38;;;;;;;2.83;1.45;;;;;;;8.30;57.70;101499.91;5047986;28;20072;-72
2021/03/23 11:27:04;;;;;;;2.30;1.20;;;;;;;8.14;57.94;101500.47;5026868;28;20059;-73
2021/03/23 11:29:29;;;;;;;4.85;1.50;;;;;;;8.14;59.45;101500.47;5049482;28;20038;-73
2021/03/23 11:31:55;;;;;;;3.25;1.33;;;;;;;8.27;58.08;101497.22;5057249;28;20029;-73
2021/03/23 11:34:22;;;;;;;3.03;1.50;;;;;;;8.19;60.19;101490.94;5045351;28;20533;-73
2021/03/23 11:36:48;;;;;;;2.70;1.60;;;;;;;8.12;61.22;101502.19;5044985;28;20044;-73
2021/03/23 11:39:14;;;;;;;4.82;1.50;;;;;;;8.06;61.32;101494.19;5043248;28;20040;-73
2021/03/23 11:41:53;;;;;;;3.10;1.70;;;;;;;8.07;61.97;101498.63;5033877;28;20032;-73
2021/03/23 11:44:30;;;;;;;2.75;1.63;;;;;;;8.20;61.36;101490.09;5044913;28;20041;-73
2021/03/23 11:47:16;;;;;;;4.57;1.30;;;;;;;8.24;61.41;101497.19;5044510;28;20052;-73
2021/03/23 11:50:05;;;;;;;3.38;1.60;;;;;;;8.20;61.61;101490.09;5051881;28;20038;-72
2021/03/23 11:52:31;;;;;;;3.65;1.80;;;;;;;8.11;62.22;101485.53;5040344;28;20041;-73
2021/03/23 11:54:58;;;;;;;2.85;1.70;;;;;;;8.14;61.73;101484.72;5041628;28;20067;-73
2021/03/23 11:57:25;;;;;;;4.60;2.03;;;;;;;8.03;62.53;101473.09;5044773;28;20033;-73